sensor_id;sensor_type;location;lat;lon;timestamp;pressure;altitude;pressure_sealevel;temperature;humidity
6224;BME280;3145;42.726;23.342;2023-04-21T00:00:24;72423.91;;;-142.70;65.95
6224;BME280;3145;42.726;23.342;2023-04-21T00:02:51;72423.91;;;-142.70;65.57
6224;BME280;3145;42.726;23.342;2023-04-21T00:05:18;72423.91;;;-142.70;65.70
6224;BME280;3145;42.726;23.342;2023-04-21T00:07:44;72429.97;;;-142.70;65.52
6224;BME280;3145;42.726;23.342;2023-04-21T00:10:11;72436.00;;;-142.70;65.25
6224;BME280;3145;42.726;23.342;2023-04-21T00:12:38;72436.00;;;-142.70;65.09
6224;BME280;3145;42.726;23.342;2023-04-21T00:15:08;72444.06;;;-142.70;64.81
6224;BME280;3145;42.726;23.342;2023-04-21T00:17:34;72444.06;;;-142.70;64.49
6224;BME280;3145;42.726;23.342;2023-04-21T00:20:01;72452.13;;;-142.70;64.94
6224;BME280;3145;42.726;23.342;2023-04-21T00:22:29;72468.22;;;-142.70;64.49
6224;BME280;3145;42.726;23.342;2023-04-21T00:24:55;72470.25;;;-142.70;64.68
6224;BME280;3145;42.726;23.342;2023-04-21T00:27:22;72480.31;;;-142.70;65.19
6224;BME280;3145;42.726;23.342;2023-04-21T00:29:49;72490.38;;;-142.70;65.09
6224;BME280;3145;42.726;23.342;2023-04-21T00:32:17;72508.53;;;-142.70;64.66
6224;BME280;3145;42.726;23.342;2023-04-21T00:34:44;72530.69;;;-142.70;64.91
6224;BME280;3145;42.726;23.342;2023-04-21T00:37:10;72534.72;;;-142.70;65.14
6224;BME280;3145;42.726;23.342;2023-04-21T00:39:37;72536.72;;;-142.70;66.11
6224;BME280;3145;42.726;23.342;2023-04-21T00:42:04;72532.69;;;-142.70;66.63
6224;BME280;3145;42.726;23.342;2023-04-21T00:44:31;72536.72;;;-142.70;66.57
6224;BME280;3145;42.726;23.342;2023-04-21T00:46:57;72544.78;;;-142.70;67.05
6224;BME280;3145;42.726;23.342;2023-04-21T00:49:26;72544.78;;;-142.70;67.30
6224;BME280;3145;42.726;23.342;2023-04-21T00:51:53;72544.78;;;-142.70;67.43
6224;BME280;3145;42.726;23.342;2023-04-21T00:54:22;72544.78;;;-142.70;67.29
6224;BME280;3145;42.726;23.342;2023-04-21T00:56:49;72544.78;;;-142.70;67.29
6224;BME280;3145;42.726;23.342;2023-04-21T00:59:16;72536.72;;;-142.70;67.51
6224;BME280;3145;42.726;23.342;2023-04-21T01:01:43;72532.69;;;-142.70;67.50
6224;BME280;3145;42.726;23.342;2023-04-21T01:04:10;72538.75;;;-142.70;67.47
6224;BME280;3145;42.726;23.342;2023-04-21T01:06:38;72538.75;;;-142.70;67.32
6224;BME280;3145;42.726;23.342;2023-04-21T01:09:05;72540.75;;;-142.70;67.50
6224;BME280;3145;42.726;23.342;2023-04-21T01:11:32;72538.75;;;-142.70;68.16
6224;BME280;3145;42.726;23.342;2023-04-21T01:13:58;72544.78;;;-142.70;67.68
6224;BME280;3145;42.726;23.342;2023-04-21T01:16:25;72546.78;;;-142.70;67.95
6224;BME280;3145;42.726;23.342;2023-04-21T01:18:52;72568.97;;;-142.70;67.67
6224;BME280;3145;42.726;23.342;2023-04-21T01:21:19;72577.00;;;-142.70;67.63
6224;BME280;3145;42.726;23.342;2023-04-21T01:23:47;72589.09;;;-142.70;67.99
6224;BME280;3145;42.726;23.342;2023-04-21T01:26:16;72601.19;;;-142.70;67.97
6224;BME280;3145;42.726;23.342;2023-04-21T01:28:43;72609.25;;;-142.70;68.26
6224;BME280;3145;42.726;23.342;2023-04-21T01:31:12;72625.38;;;-142.70;68.53
6224;BME280;3145;42.726;23.342;2023-04-21T01:33:38;72625.38;;;-142.70;68.97
6224;BME280;3145;42.726;23.342;2023-04-21T01:36:06;72623.34;;;-142.70;69.47
6224;BME280;3145;42.726;23.342;2023-04-21T01:38:33;72621.34;;;-142.70;69.45
6224;BME280;3145;42.726;23.342;2023-04-21T01:41:04;72617.31;;;-142.70;69.55
6224;BME280;3145;42.726;23.342;2023-04-21T01:43:31;72617.31;;;-142.70;69.62
6224;BME280;3145;42.726;23.342;2023-04-21T01:45:57;72615.28;;;-142.70;69.67
6224;BME280;3145;42.726;23.342;2023-04-21T01:48:24;72623.34;;;-142.70;69.56
6224;BME280;3145;42.726;23.342;2023-04-21T01:50:51;72625.38;;;-142.70;69.91
6224;BME280;3145;42.726;23.342;2023-04-21T01:53:17;72625.38;;;-142.70;69.41
6224;BME280;3145;42.726;23.342;2023-04-21T01:55:44;72633.41;;;-142.70;69.32
6224;BME280;3145;42.726;23.342;2023-04-21T01:58:12;72635.44;;;-142.70;69.91
6224;BME280;3145;42.726;23.342;2023-04-21T02:00:39;72635.44;;;-142.70;70.10
6224;BME280;3145;42.726;23.342;2023-04-21T02:03:06;72629.38;;;-142.70;69.93
6224;BME280;3145;42.726;23.342;2023-04-21T02:05:33;72625.38;;;-142.70;69.58
6224;BME280;3145;42.726;23.342;2023-04-21T02:07:59;72637.44;;;-142.70;69.52
6224;BME280;3145;42.726;23.342;2023-04-21T02:10:26;72629.38;;;-142.70;69.39
6224;BME280;3145;42.726;23.342;2023-04-21T02:12:53;72637.44;;;-142.70;69.56
6224;BME280;3145;42.726;23.342;2023-04-21T02:15:21;72645.50;;;-142.70;69.61
6224;BME280;3145;42.726;23.342;2023-04-21T02:17:48;72643.50;;;-142.70;69.54
6224;BME280;3145;42.726;23.342;2023-04-21T02:20:14;72641.47;;;-142.70;70.10
6224;BME280;3145;42.726;23.342;2023-04-21T02:22:41;72637.44;;;-142.70;69.92
6224;BME280;3145;42.726;23.342;2023-04-21T02:25:08;72641.47;;;-142.70;69.77
6224;BME280;3145;42.726;23.342;2023-04-21T02:27:35;72641.47;;;-142.70;69.62
6224;BME280;3145;42.726;23.342;2023-04-21T02:30:02;72637.44;;;-142.70;69.80
6224;BME280;3145;42.726;23.342;2023-04-21T02:32:30;72641.47;;;-142.70;69.77
6224;BME280;3145;42.726;23.342;2023-04-21T02:34:57;72653.56;;;-142.70;69.67
6224;BME280;3145;42.726;23.342;2023-04-21T02:37:24;72657.59;;;-142.70;69.97
6224;BME280;3145;42.726;23.342;2023-04-21T02:39:51;72651.56;;;-142.70;70.04
6224;BME280;3145;42.726;23.342;2023-04-21T02:42:18;72653.56;;;-142.70;69.82
6224;BME280;3145;42.726;23.342;2023-04-21T02:44:44;72689.84;;;-142.70;69.17
6224;BME280;3145;42.726;23.342;2023-04-21T02:47:13;72724.06;;;-142.70;69.78
6224;BME280;3145;42.726;23.342;2023-04-21T02:49:42;72720.06;;;-142.70;70.82
6224;BME280;3145;42.726;23.342;2023-04-21T02:52:09;72728.09;;;-142.70;71.51
6224;BME280;3145;42.726;23.342;2023-04-21T02:54:36;72714.00;;;-142.70;71.83
6224;BME280;3145;42.726;23.342;2023-04-21T02:57:03;72714.00;;;-142.70;72.12
6224;BME280;3145;42.726;23.342;2023-04-21T02:59:29;72697.88;;;-142.70;72.16
6224;BME280;3145;42.726;23.342;2023-04-21T03:01:56;72693.84;;;-142.70;72.51
6224;BME280;3145;42.726;23.342;2023-04-21T03:04:23;72693.84;;;-142.70;72.46
6224;BME280;3145;42.726;23.342;2023-04-21T03:06:52;72681.78;;;-142.70;72.16
6224;BME280;3145;42.726;23.342;2023-04-21T03:09:18;72669.69;;;-142.70;72.16
6224;BME280;3145;42.726;23.342;2023-04-21T03:11:45;72691.84;;;-142.70;71.28
6224;BME280;3145;42.726;23.342;2023-04-21T03:14:12;72705.94;;;-142.70;71.89
6224;BME280;3145;42.726;23.342;2023-04-21T03:16:39;72701.91;;;-142.70;71.83
6224;BME280;3145;42.726;23.342;2023-04-21T03:19:06;72693.84;;;-142.70;72.30
6224;BME280;3145;42.726;23.342;2023-04-21T03:21:35;72693.84;;;-142.70;72.35
6224;BME280;3145;42.726;23.342;2023-04-21T03:24:04;72689.84;;;-142.70;72.84
6224;BME280;3145;42.726;23.342;2023-04-21T03:26:31;72681.78;;;-142.70;72.73
6224;BME280;3145;42.726;23.342;2023-04-21T03:28:58;72697.88;;;-142.70;71.58
6224;BME280;3145;42.726;23.342;2023-04-21T03:31:25;72714.00;;;-142.70;71.57
6224;BME280;3145;42.726;23.342;2023-04-21T03:33:51;72709.97;;;-142.70;71.85
6224;BME280;3145;42.726;23.342;2023-04-21T03:36:18;72722.06;;;-142.70;71.92
6224;BME280;3145;42.726;23.342;2023-04-21T03:38:45;72728.09;;;-142.70;71.81
6224;BME280;3145;42.726;23.342;2023-04-21T03:41:13;72726.09;;;-142.70;72.36
6224;BME280;3145;42.726;23.342;2023-04-21T03:43:40;72714.00;;;-142.70;73.17
6224;BME280;3145;42.726;23.342;2023-04-21T03:46:06;72709.97;;;-142.70;72.77
6224;BME280;3145;42.726;23.342;2023-04-21T03:48:33;72701.91;;;-142.70;72.78
6224;BME280;3145;42.726;23.342;2023-04-21T03:51:00;72687.81;;;-142.70;72.91
6224;BME280;3145;42.726;23.342;2023-04-21T03:53:26;72669.69;;;-142.70;73.62
6224;BME280;3145;42.726;23.342;2023-04-21T03:55:53;72653.56;;;-142.70;73.03
6224;BME280;3145;42.726;23.342;2023-04-21T03:58:21;72641.47;;;-142.70;73.59
6224;BME280;3145;42.726;23.342;2023-04-21T04:00:48;72621.34;;;-142.70;73.43
6224;BME280;3145;42.726;23.342;2023-04-21T04:03:14;72601.19;;;-142.70;72.56
6224;BME280;3145;42.726;23.342;2023-04-21T04:05:41;72577.00;;;-142.70;72.63
6224;BME280;3145;42.726;23.342;2023-04-21T04:08:08;72548.81;;;-142.70;72.04
6224;BME280;3145;42.726;23.342;2023-04-21T04:10:34;72619.31;;;-142.70;68.96
6224;BME280;3145;42.726;23.342;2023-04-21T04:13:02;72681.78;;;-142.70;69.44
6224;BME280;3145;42.726;23.342;2023-04-21T04:15:30;72673.72;;;-142.70;70.07
6224;BME280;3145;42.726;23.342;2023-04-21T04:17:57;72637.44;;;-142.70;70.50
6224;BME280;3145;42.726;23.342;2023-04-21T04:20:24;72589.09;;;-142.70;70.42
6224;BME280;3145;42.726;23.342;2023-04-21T04:22:51;72540.75;;;-142.70;70.12
6224;BME280;3145;42.726;23.342;2023-04-21T04:25:18;72514.56;;;-142.70;69.47
6224;BME280;3145;42.726;23.342;2023-04-21T04:27:44;72484.34;;;-142.70;68.67
6224;BME280;3145;42.726;23.342;2023-04-21T04:30:13;72474.28;;;-142.70;67.97
6224;BME280;3145;42.726;23.342;2023-04-21T04:32:42;72476.28;;;-142.70;67.57
6224;BME280;3145;42.726;23.342;2023-04-21T04:35:09;72474.28;;;-142.70;67.30
6224;BME280;3145;42.726;23.342;2023-04-21T04:37:37;72520.59;;;-142.70;66.95
6224;BME280;3145;42.726;23.342;2023-04-21T04:40:06;72548.81;;;-142.70;67.78
6224;BME280;3145;42.726;23.342;2023-04-21T04:42:36;72548.81;;;-142.70;67.69
6224;BME280;3145;42.726;23.342;2023-04-21T04:45:04;72564.94;;;-142.70;67.70
6224;BME280;3145;42.726;23.342;2023-04-21T04:47:33;72613.28;;;-142.70;67.67
6224;BME280;3145;42.726;23.342;2023-04-21T04:50:01;72635.44;;;-142.70;68.51
6224;BME280;3145;42.726;23.342;2023-04-21T04:52:27;72585.06;;;-142.70;69.11
6224;BME280;3145;42.726;23.342;2023-04-21T04:54:54;72597.16;;;-142.70;68.33
6224;BME280;3145;42.726;23.342;2023-04-21T04:57:21;72579.03;;;-142.70;68.19
6224;BME280;3145;42.726;23.342;2023-04-21T04:59:47;72544.78;;;-142.70;68.81
6224;BME280;3145;42.726;23.342;2023-04-21T05:02:15;72506.50;;;-142.70;68.11
6224;BME280;3145;42.726;23.342;2023-04-21T05:04:42;72468.22;;;-142.70;67.48
6224;BME280;3145;42.726;23.342;2023-04-21T05:07:10;72448.09;;;-142.70;66.94
6224;BME280;3145;42.726;23.342;2023-04-21T05:09:37;72407.81;;;-142.70;67.29
6224;BME280;3145;42.726;23.342;2023-04-21T05:12:04;72393.69;;;-142.70;65.62
6224;BME280;3145;42.726;23.342;2023-04-21T05:14:31;72381.59;;;-142.70;64.23
6224;BME280;3145;42.726;23.342;2023-04-21T05:16:58;72351.41;;;-142.70;64.73
6224;BME280;3145;42.726;23.342;2023-04-21T05:19:24;72311.09;;;-142.70;62.90
6224;BME280;3145;42.726;23.342;2023-04-21T05:21:51;72323.19;;;-142.70;60.31
6224;BME280;3145;42.726;23.342;2023-04-21T05:24:20;72254.72;;;-142.70;61.56
6224;BME280;3145;42.726;23.342;2023-04-21T05:26:48;72174.13;;;-142.70;59.55
6224;BME280;3145;42.726;23.342;2023-04-21T05:29:15;72105.66;;;-142.70;56.81
6224;BME280;3145;42.726;23.342;2023-04-21T05:31:42;72053.28;;;-142.70;54.06
6224;BME280;3145;42.726;23.342;2023-04-21T05:34:08;71984.78;;;-142.70;53.76
6224;BME280;3145;42.726;23.342;2023-04-21T05:36:35;71916.31;;;-142.70;52.45
6224;BME280;3145;42.726;23.342;2023-04-21T05:39:02;71863.94;;;-142.70;50.31
6224;BME280;3145;42.726;23.342;2023-04-21T05:41:30;71795.47;;;-142.70;48.28
6224;BME280;3145;42.726;23.342;2023-04-21T05:43:56;71767.28;;;-142.70;46.89
6224;BME280;3145;42.726;23.342;2023-04-21T05:46:23;71724.97;;;-142.70;46.33
6224;BME280;3145;42.726;23.342;2023-04-21T05:48:50;71743.09;;;-142.70;44.48
6224;BME280;3145;42.726;23.342;2023-04-21T05:51:17;71771.28;;;-142.70;46.41
6224;BME280;3145;42.726;23.342;2023-04-21T05:53:44;71743.09;;;-142.70;45.51
6224;BME280;3145;42.726;23.342;2023-04-21T05:56:12;71684.69;;;-142.70;45.00
6224;BME280;3145;42.726;23.342;2023-04-21T05:58:40;71630.31;;;-142.70;43.76
6224;BME280;3145;42.726;23.342;2023-04-21T06:01:07;71586.00;;;-142.70;42.57
6224;BME280;3145;42.726;23.342;2023-04-21T06:03:34;71533.66;;;-142.70;42.02
6224;BME280;3145;42.726;23.342;2023-04-21T06:06:01;71537.66;;;-142.70;41.20
6224;BME280;3145;42.726;23.342;2023-04-21T06:08:28;71511.50;;;-142.70;40.26
6224;BME280;3145;42.726;23.342;2023-04-21T06:10:55;71436.97;;;-142.70;40.41
6224;BME280;3145;42.726;23.342;2023-04-21T06:13:22;71376.56;;;-142.70;39.31
6224;BME280;3145;42.726;23.342;2023-04-21T06:15:50;71348.38;;;-142.70;38.37
6224;BME280;3145;42.726;23.342;2023-04-21T06:18:17;71370.53;;;-142.70;37.68
6224;BME280;3145;42.726;23.342;2023-04-21T06:20:49;71348.38;;;-142.70;37.75
6224;BME280;3145;42.726;23.342;2023-04-21T06:23:16;71358.44;;;-142.70;37.87
6224;BME280;3145;42.726;23.342;2023-04-21T06:25:42;71340.31;;;-142.70;38.15
6224;BME280;3145;42.726;23.342;2023-04-21T06:28:09;71318.16;;;-142.70;37.50
6224;BME280;3145;42.726;23.342;2023-04-21T06:30:36;71340.31;;;-142.70;37.70
6224;BME280;3145;42.726;23.342;2023-04-21T06:33:04;71320.19;;;-142.70;37.59
6224;BME280;3145;42.726;23.342;2023-04-21T06:35:32;71316.16;;;-142.70;37.85
6224;BME280;3145;42.726;23.342;2023-04-21T06:37:58;71400.72;;;-142.70;37.78
6224;BME280;3145;42.726;23.342;2023-04-21T06:40:25;71404.75;;;-142.70;38.69
6224;BME280;3145;42.726;23.342;2023-04-21T06:42:52;71336.28;;;-142.70;38.44
6224;BME280;3145;42.726;23.342;2023-04-21T06:45:19;71308.09;;;-142.70;37.68
6224;BME280;3145;42.726;23.342;2023-04-21T06:47:45;71277.88;;;-142.70;37.57
6224;BME280;3145;42.726;23.342;2023-04-21T06:50:13;71249.69;;;-142.70;37.17
6224;BME280;3145;42.726;23.342;2023-04-21T06:52:40;71239.63;;;-142.70;36.61
6224;BME280;3145;42.726;23.342;2023-04-21T06:55:07;71247.69;;;-142.70;36.55
6224;BME280;3145;42.726;23.342;2023-04-21T06:57:34;71263.78;;;-142.70;36.77
6224;BME280;3145;42.726;23.342;2023-04-21T07:00:01;71298.03;;;-142.70;36.78
6224;BME280;3145;42.726;23.342;2023-04-21T07:02:28;71338.31;;;-142.70;37.65
6224;BME280;3145;42.726;23.342;2023-04-21T07:04:55;71316.16;;;-142.70;37.74
6224;BME280;3145;42.726;23.342;2023-04-21T07:07:23;71348.38;;;-142.70;37.75
6224;BME280;3145;42.726;23.342;2023-04-21T07:09:50;71316.16;;;-142.70;37.79
6224;BME280;3145;42.726;23.342;2023-04-21T07:12:17;71320.19;;;-142.70;37.27
6224;BME280;3145;42.726;23.342;2023-04-21T07:14:44;71267.81;;;-142.70;37.51
6224;BME280;3145;42.726;23.342;2023-04-21T07:17:11;71211.44;;;-142.70;37.62
6224;BME280;3145;42.726;23.342;2023-04-21T07:19:37;71179.22;;;-142.70;36.46
6224;BME280;3145;42.726;23.342;2023-04-21T07:22:04;71177.19;;;-142.70;36.30
6224;BME280;3145;42.726;23.342;2023-04-21T07:24:33;71247.69;;;-142.70;37.03
6224;BME280;3145;42.726;23.342;2023-04-21T07:27:00;71211.44;;;-142.70;37.25
6224;BME280;3145;42.726;23.342;2023-04-21T07:29:26;71225.53;;;-142.70;36.55
6224;BME280;3145;42.726;23.342;2023-04-21T07:31:53;71130.88;;;-142.70;36.14
6224;BME280;3145;42.726;23.342;2023-04-21T07:34:20;71183.25;;;-142.70;36.03
6224;BME280;3145;42.726;23.342;2023-04-21T07:36:47;71187.28;;;-142.70;36.44
6224;BME280;3145;42.726;23.342;2023-04-21T07:39:13;71114.78;;;-142.70;36.06
6224;BME280;3145;42.726;23.342;2023-04-21T07:41:42;71110.75;;;-142.70;35.73
6224;BME280;3145;42.726;23.342;2023-04-21T07:44:08;71114.78;;;-142.70;35.09
6224;BME280;3145;42.726;23.342;2023-04-21T07:46:35;71147.00;;;-142.70;35.41
6224;BME280;3145;42.726;23.342;2023-04-21T07:49:02;71215.47;;;-142.70;36.43
6224;BME280;3145;42.726;23.342;2023-04-21T07:51:28;71157.06;;;-142.70;36.57
6224;BME280;3145;42.726;23.342;2023-04-21T07:53:56;71219.50;;;-142.70;37.20
6224;BME280;3145;42.726;23.342;2023-04-21T07:56:22;71177.19;;;-142.70;36.36
6224;BME280;3145;42.726;23.342;2023-04-21T07:58:51;71181.22;;;-142.70;36.30
6224;BME280;3145;42.726;23.342;2023-04-21T08:01:18;71183.25;;;-142.70;36.15
6224;BME280;3145;42.726;23.342;2023-04-21T08:03:44;71203.38;;;-142.70;36.38
6224;BME280;3145;42.726;23.342;2023-04-21T08:06:11;71231.56;;;-142.70;36.84
6224;BME280;3145;42.726;23.342;2023-04-21T08:08:38;71231.56;;;-142.70;36.89
6224;BME280;3145;42.726;23.342;2023-04-21T08:11:05;71183.25;;;-142.70;36.71
6224;BME280;3145;42.726;23.342;2023-04-21T08:13:31;71183.25;;;-142.70;35.91
6224;BME280;3145;42.726;23.342;2023-04-21T08:15:59;71247.69;;;-142.70;36.47
6224;BME280;3145;42.726;23.342;2023-04-21T08:18:26;71283.94;;;-142.70;36.65
6224;BME280;3145;42.726;23.342;2023-04-21T08:20:53;71259.75;;;-142.70;36.94
6224;BME280;3145;42.726;23.342;2023-04-21T08:23:22;71247.69;;;-142.70;36.94
6224;BME280;3145;42.726;23.342;2023-04-21T08:25:49;71267.81;;;-142.70;36.71
6224;BME280;3145;42.726;23.342;2023-04-21T08:28:15;71255.72;;;-142.70;37.41
6224;BME280;3145;42.726;23.342;2023-04-21T08:30:42;71233.59;;;-142.70;37.07
6224;BME280;3145;42.726;23.342;2023-04-21T08:33:10;71235.59;;;-142.70;37.58
6224;BME280;3145;42.726;23.342;2023-04-21T08:35:38;71163.09;;;-142.70;36.28
6224;BME280;3145;42.726;23.342;2023-04-21T08:38:05;71199.34;;;-142.70;36.11
6224;BME280;3145;42.726;23.342;2023-04-21T08:40:35;71189.28;;;-142.70;36.38
6224;BME280;3145;42.726;23.342;2023-04-21T08:43:03;71201.38;;;-142.70;36.11
6224;BME280;3145;42.726;23.342;2023-04-21T08:45:30;71128.88;;;-142.70;36.57
6224;BME280;3145;42.726;23.342;2023-04-21T08:47:58;71102.69;;;-142.70;35.51
6224;BME280;3145;42.726;23.342;2023-04-21T08:50:28;71056.38;;;-142.70;34.90
6224;BME280;3145;42.726;23.342;2023-04-21T08:52:55;71046.31;;;-142.70;35.48
6224;BME280;3145;42.726;23.342;2023-04-21T08:55:24;71022.16;;;-142.70;35.18
6224;BME280;3145;42.726;23.342;2023-04-21T08:57:51;71002.00;;;-142.70;34.26
6224;BME280;3145;42.726;23.342;2023-04-21T09:00:18;70969.78;;;-142.70;34.45
6224;BME280;3145;42.726;23.342;2023-04-21T09:02:52;70947.66;;;-142.70;34.12
6224;BME280;3145;42.726;23.342;2023-04-21T09:05:21;70941.59;;;-142.70;33.50
6224;BME280;3145;42.726;23.342;2023-04-21T09:07:51;71090.63;;;-142.70;34.07
6224;BME280;3145;42.726;23.342;2023-04-21T09:10:22;71112.75;;;-142.70;34.65
6224;BME280;3145;42.726;23.342;2023-04-21T09:12:50;71138.94;;;-142.70;35.03
6224;BME280;3145;42.726;23.342;2023-04-21T09:15:19;71163.09;;;-142.70;35.56
6224;BME280;3145;42.726;23.342;2023-04-21T09:17:54;71195.31;;;-142.70;35.92
6224;BME280;3145;42.726;23.342;2023-04-21T09:20:22;71197.34;;;-142.70;35.98
6224;BME280;3145;42.726;23.342;2023-04-21T09:22:50;71229.56;;;-142.70;36.55
6224;BME280;3145;42.726;23.342;2023-04-21T09:25:19;71241.63;;;-142.70;36.90
6224;BME280;3145;42.726;23.342;2023-04-21T09:27:46;71257.75;;;-142.70;36.62
6224;BME280;3145;42.726;23.342;2023-04-21T09:30:17;71219.50;;;-142.70;36.84
6224;BME280;3145;42.726;23.342;2023-04-21T09:32:44;71153.03;;;-142.70;35.83
6224;BME280;3145;42.726;23.342;2023-04-21T09:35:11;71106.72;;;-142.70;34.99
6224;BME280;3145;42.726;23.342;2023-04-21T09:37:38;71100.69;;;-142.70;34.91
6224;BME280;3145;42.726;23.342;2023-04-21T09:40:07;71138.94;;;-142.70;35.37
6224;BME280;3145;42.726;23.342;2023-04-21T09:42:38;71144.97;;;-142.70;35.43
6224;BME280;3145;42.726;23.342;2023-04-21T09:45:06;71118.81;;;-142.70;35.24
6224;BME280;3145;42.726;23.342;2023-04-21T09:47:38;71102.69;;;-142.70;34.94
6224;BME280;3145;42.726;23.342;2023-04-21T09:50:06;71130.88;;;-142.70;34.95
6224;BME280;3145;42.726;23.342;2023-04-21T09:52:35;71173.16;;;-142.70;35.38
6224;BME280;3145;42.726;23.342;2023-04-21T09:55:10;71181.22;;;-142.70;35.29
6224;BME280;3145;42.726;23.342;2023-04-21T09:57:39;71255.72;;;-142.70;35.66
6224;BME280;3145;42.726;23.342;2023-04-21T10:00:08;71227.53;;;-142.70;35.41
6224;BME280;3145;42.726;23.342;2023-04-21T10:02:39;71211.44;;;-142.70;35.29
6224;BME280;3145;42.726;23.342;2023-04-21T10:05:09;71191.28;;;-142.70;35.90
6224;BME280;3145;42.726;23.342;2023-04-21T10:07:36;71199.34;;;-142.70;35.79
6224;BME280;3145;42.726;23.342;2023-04-21T10:10:08;71249.69;;;-142.70;36.21
6224;BME280;3145;42.726;23.342;2023-04-21T10:12:38;71263.78;;;-142.70;35.79
6224;BME280;3145;42.726;23.342;2023-04-21T10:15:29;71277.88;;;-142.70;35.76
6224;BME280;3145;42.726;23.342;2023-04-21T10:18:10;71263.78;;;-142.70;36.19
6224;BME280;3145;42.726;23.342;2023-04-21T10:20:50;71251.72;;;-142.70;36.03
6224;BME280;3145;42.726;23.342;2023-04-21T10:23:28;71239.63;;;-142.70;35.79
6224;BME280;3145;42.726;23.342;2023-04-21T10:26:02;71189.28;;;-142.70;36.14
6224;BME280;3145;42.726;23.342;2023-04-21T10:28:52;71159.06;;;-142.70;35.76
6224;BME280;3145;42.726;23.342;2023-04-21T10:31:27;71134.91;;;-142.70;35.76
6224;BME280;3145;42.726;23.342;2023-04-21T10:34:17;71122.84;;;-142.70;36.01
6224;BME280;3145;42.726;23.342;2023-04-21T10:37:13;71078.53;;;-142.70;35.38
6224;BME280;3145;42.726;23.342;2023-04-21T10:39:54;71060.41;;;-142.70;34.34
6224;BME280;3145;42.726;23.342;2023-04-21T10:42:28;71058.41;;;-142.70;33.97
6224;BME280;3145;42.726;23.342;2023-04-21T10:45:16;71118.81;;;-142.70;34.12
6224;BME280;3145;42.726;23.342;2023-04-21T10:47:46;71136.94;;;-142.70;33.53
6224;BME280;3145;42.726;23.342;2023-04-21T10:50:17;71110.75;;;-142.70;33.52
6224;BME280;3145;42.726;23.342;2023-04-21T10:52:46;71050.34;;;-142.70;34.07
6224;BME280;3145;42.726;23.342;2023-04-21T10:55:13;70985.91;;;-142.70;34.16
6224;BME280;3145;42.726;23.342;2023-04-21T10:57:43;70919.47;;;-142.70;33.09
6224;BME280;3145;42.726;23.342;2023-04-21T11:00:14;70897.31;;;-142.70;32.76
6224;BME280;3145;42.726;23.342;2023-04-21T11:02:42;70997.97;;;-142.70;33.88
6224;BME280;3145;42.726;23.342;2023-04-21T11:05:09;71018.13;;;-142.70;34.93
6224;BME280;3145;42.726;23.342;2023-04-21T11:07:36;71084.56;;;-142.70;36.21
6224;BME280;3145;42.726;23.342;2023-04-21T11:10:04;71100.69;;;-142.70;36.21
6224;BME280;3145;42.726;23.342;2023-04-21T11:12:33;71147.00;;;-142.70;37.07
6224;BME280;3145;42.726;23.342;2023-04-21T11:15:04;71187.28;;;-142.70;36.76
6224;BME280;3145;42.726;23.342;2023-04-21T11:17:33;71163.09;;;-142.70;37.17
6224;BME280;3145;42.726;23.342;2023-04-21T11:20:01;71183.25;;;-142.70;36.59
6224;BME280;3145;42.726;23.342;2023-04-21T11:22:28;71181.22;;;-142.70;36.72
6224;BME280;3145;42.726;23.342;2023-04-21T11:24:56;71153.03;;;-142.70;37.09
6224;BME280;3145;42.726;23.342;2023-04-21T11:27:26;71138.94;;;-142.70;36.49
6224;BME280;3145;42.726;23.342;2023-04-21T11:29:53;71167.13;;;-142.70;36.63
6224;BME280;3145;42.726;23.342;2023-04-21T11:32:21;71179.22;;;-142.70;36.93
6224;BME280;3145;42.726;23.342;2023-04-21T11:34:48;71167.13;;;-142.70;37.06
6224;BME280;3145;42.726;23.342;2023-04-21T11:37:19;71181.22;;;-142.70;37.12
6224;BME280;3145;42.726;23.342;2023-04-21T11:39:46;71159.06;;;-142.70;37.08
6224;BME280;3145;42.726;23.342;2023-04-21T11:42:19;71169.16;;;-142.70;35.99
6224;BME280;3145;42.726;23.342;2023-04-21T11:44:46;71161.09;;;-142.70;34.73
6224;BME280;3145;42.726;23.342;2023-04-21T11:47:14;71159.06;;;-142.70;34.38
6224;BME280;3145;42.726;23.342;2023-04-21T11:49:49;71165.13;;;-142.70;34.38
6224;BME280;3145;42.726;23.342;2023-04-21T11:52:28;71183.25;;;-142.70;34.21
6224;BME280;3145;42.726;23.342;2023-04-21T11:54:59;71171.16;;;-142.70;34.25
6224;BME280;3145;42.726;23.342;2023-04-21T11:57:26;71155.06;;;-142.70;34.67
6224;BME280;3145;42.726;23.342;2023-04-21T11:59:53;71144.97;;;-142.70;34.78
6224;BME280;3145;42.726;23.342;2023-04-21T12:02:25;71159.06;;;-142.70;34.30
6224;BME280;3145;42.726;23.342;2023-04-21T12:05:04;71191.28;;;-142.70;34.60
6224;BME280;3145;42.726;23.342;2023-04-21T12:07:31;71227.53;;;-142.70;35.31
6224;BME280;3145;42.726;23.342;2023-04-21T12:09:58;71215.47;;;-142.70;34.75
6224;BME280;3145;42.726;23.342;2023-04-21T12:12:25;71227.53;;;-142.70;34.44
6224;BME280;3145;42.726;23.342;2023-04-21T12:14:52;71245.66;;;-142.70;34.40
6224;BME280;3145;42.726;23.342;2023-04-21T12:17:19;71251.72;;;-142.70;34.65
6224;BME280;3145;42.726;23.342;2023-04-21T12:19:46;71253.72;;;-142.70;35.43
6224;BME280;3145;42.726;23.342;2023-04-21T12:22:16;71255.72;;;-142.70;34.90
6224;BME280;3145;42.726;23.342;2023-04-21T12:24:44;71255.72;;;-142.70;35.00
6224;BME280;3145;42.726;23.342;2023-04-21T12:27:11;71243.66;;;-142.70;34.63
6224;BME280;3145;42.726;23.342;2023-04-21T12:29:39;71239.63;;;-142.70;35.11
6224;BME280;3145;42.726;23.342;2023-04-21T12:32:06;71227.53;;;-142.70;34.68
6224;BME280;3145;42.726;23.342;2023-04-21T12:34:33;71159.06;;;-142.70;35.31
6224;BME280;3145;42.726;23.342;2023-04-21T12:37:00;71102.69;;;-142.70;34.43
6224;BME280;3145;42.726;23.342;2023-04-21T12:39:29;71106.72;;;-142.70;34.10
6224;BME280;3145;42.726;23.342;2023-04-21T12:41:55;71110.75;;;-142.70;34.48
6224;BME280;3145;42.726;23.342;2023-04-21T12:44:22;71086.59;;;-142.70;33.79
6224;BME280;3145;42.726;23.342;2023-04-21T12:46:49;71104.72;;;-142.70;34.43
6224;BME280;3145;42.726;23.342;2023-04-21T12:49:16;71114.78;;;-142.70;33.81
6224;BME280;3145;42.726;23.342;2023-04-21T12:51:43;71153.03;;;-142.70;33.36
6224;BME280;3145;42.726;23.342;2023-04-21T12:54:10;71142.97;;;-142.70;34.27